Atlantic Beach, NY

6:23 PM EDT on October 01, 2014 (GMT -0400)
Long Beach, NY (East End) | Change Station
CLOSE
Current Station
Personal Weather Station
Location: Long Beach, NY
Elevation: 10 ft
Nearby Weather Stations

Elev 10 ft 40.59 °N, 73.64 °W | Updated 15 seconds ago

Overcast
Overcast
63.6 °F
Feels Like 63.6 °F
N
4.0
Wind Variable Wind from NE
Gusts 9.0 mph

Today
High -- | Low -- °F
--% Chance of Precip.
Yesterday
High -- | Low -- °F
Precip. -- in
6:51 AM 6:37 PM
First Quarter, 51% visible
Pressure 30.04 in
Visibility 10.0 miles
Clouds Mostly Cloudy 1700 ft
Overcast 2800 ft
Dew Point 60 °F
Humidity 88%
Rainfall 0.02 in
Snow Depth Not available.
UV 0 out of 12
Pollen 1.90 out of 12
Air Quality Not available.
Flu Activity Not available.
METAR KJFK 012151Z 03010KT 10SM BKN017 OVC028 18/14 A3004 RMK AO2 SLP170 T01830139 $

More Conditions Fewer Conditions

Pressure 30.04 in
Visibility 10.0 miles
Clouds Mostly Cloudy 1700 ft
Overcast 2800 ft
Dew Point 60 °F
Humidity 88%
Rainfall 0.02 in
Snow Depth Not available.
UV 0 out of 12
Pollen 1.90 out of 12
Air Quality Not available.
Flu Activity Not available.
METAR KJFK 012151Z 03010KT 10SM BKN017 OVC028 18/14 A3004 RMK AO2 SLP170 T01830139 $

More Conditions Fewer Conditions

10-Day Weather Forecast

Almanac

Astronomy

Oct. 01, 2014 Rise Set
Actual Time 6:51 AM EDT 6:37 PM EDT
Civil Twilight 6:24 AM EDT 7:04 PM EDT
Nautical Twilight 5:52 AM EDT 7:35 PM EDT
Astronomical Twilight 5:20 AM EDT 8:07 PM EDT
Moon 1:51 PM EDT No Moon Set
Length of Visible Light 12h 40m
Length of Day
11h 45m
Tomorrow will be 2m 39s shorter.
First Quarter, 51% of the Moon is Illuminated
Today
First Quarter
Oct 8
Full
Oct 15
Last Quarter
Oct 23
New
Oct 30
First Quarter

Today's Extremes

State Highs State Lows

Community

WunderPhotos

Upload Photos

1,758,058 photos uploaded!

WunderBlogs® & News

By Dr. Jeff Masters
Director of Meteorology, Weather Underground
By Kari Strenfel
Meteorologist, Weather Underground
By Christopher C. Burt
Weather Historian, Weather Underground
October 1, 2014
October 1, 2014
October 1, 2014

Nearby

Snow Depth

Station Depth Elevation
No new snow has been reported.

Earthquake Activity

City Distance Mag. Time & Date
No recent earthquake activity has been reported nearby.
Minimum magnitude displayed is 2.5.

Coastal Water Temperatures

Place Temperature
Sandy Hook, NJ 68.0 °F
The Battery, NY 69.1 °F
Bergen Point West Reach, NJ 69.1 °F
Kings Point, NY 66.9 °F

Nearby Weather Stations